createdAt,value
2023-05-14T00:00:53.496Z,41.02
2023-05-14T00:03:20.207Z,40.70
2023-05-14T00:05:46.700Z,40.71
2023-05-14T00:08:13.304Z,40.70
2023-05-14T00:10:39.763Z,40.60
2023-05-14T00:13:06.302Z,40.72
2023-05-14T00:15:34.331Z,40.69
2023-05-14T00:18:01.272Z,40.97
2023-05-14T00:20:27.966Z,40.68
2023-05-14T00:22:54.571Z,40.62
2023-05-14T00:25:21.101Z,40.52
2023-05-14T00:27:47.658Z,40.78
2023-05-14T00:30:14.286Z,40.46
2023-05-14T00:32:41.313Z,40.60
2023-05-14T00:35:08.301Z,40.64
2023-05-14T00:37:36.425Z,40.72
2023-05-14T00:40:03.921Z,40.74
2023-05-14T00:42:30.449Z,40.71
2023-05-14T00:44:56.992Z,40.56
2023-05-14T00:47:23.862Z,40.36
2023-05-14T00:49:50.454Z,40.35
2023-05-14T00:52:17.903Z,40.57
2023-05-14T00:54:46.707Z,40.17
2023-05-14T00:57:16.319Z,40.48
2023-05-14T00:59:43.015Z,40.54
2023-05-14T01:02:09.606Z,40.47
2023-05-14T01:04:37.782Z,40.15
2023-05-14T01:07:34.520Z,40.46
2023-05-14T01:10:04.081Z,40.40
2023-05-14T01:12:58.369Z,40.10
2023-05-14T01:15:29.110Z,40.14
2023-05-14T01:18:13.632Z,40.21
2023-05-14T01:20:40.284Z,40.28
2023-05-14T01:23:07.957Z,40.41
2023-05-14T01:25:35.201Z,40.02
2023-05-14T01:28:26.608Z,40.07
2023-05-14T01:31:12.075Z,40.13
2023-05-14T01:33:42.298Z,40.13
2023-05-14T01:36:09.949Z,40.10
2023-05-14T01:38:37.701Z,40.30
2023-05-14T01:41:05.270Z,40.14
2023-05-14T01:47:06.147Z,40.17
2023-05-14T01:49:32.589Z,40.22
2023-05-14T01:51:59.037Z,40.21
2023-05-14T01:54:25.541Z,39.81
2023-05-14T01:56:52.027Z,40.11
2023-05-14T01:59:18.423Z,40.02
2023-05-14T02:01:44.836Z,40.00
2023-05-14T02:04:11.468Z,40.03
2023-05-14T02:06:41.923Z,39.86
2023-05-14T02:09:08.366Z,39.76
2023-05-14T02:11:34.779Z,39.73
2023-05-14T02:14:01.255Z,39.92
2023-05-14T02:16:27.751Z,39.68
2023-05-14T02:18:54.355Z,40.08
2023-05-14T02:21:20.838Z,39.57
2023-05-14T02:23:49.364Z,39.58
2023-05-14T02:26:16.085Z,39.82
2023-05-14T02:28:42.602Z,40.00
2023-05-14T02:31:09.010Z,39.84
2023-05-14T02:33:35.535Z,39.90
2023-05-14T02:36:01.958Z,39.93
2023-05-14T02:38:29.331Z,39.90
2023-05-14T02:40:56.276Z,39.77
2023-05-14T02:43:25.522Z,39.69
2023-05-14T02:45:51.916Z,39.86
2023-05-14T02:48:18.655Z,39.60
2023-05-14T02:50:45.821Z,39.65
2023-05-14T02:53:12.330Z,39.58
2023-05-14T02:55:38.786Z,39.70
2023-05-14T02:58:05.192Z,39.54
2023-05-14T03:00:31.650Z,39.85
2023-05-14T03:02:58.626Z,39.51
2023-05-14T03:05:25.544Z,39.76
2023-05-14T03:07:53.483Z,39.86
2023-05-14T03:10:20.716Z,39.70
2023-05-14T03:12:47.550Z,39.84
2023-05-14T03:15:13.964Z,39.63
2023-05-14T03:17:40.545Z,39.67
2023-05-14T03:20:07.381Z,39.34
2023-05-14T03:22:35.609Z,39.41
2023-05-14T03:25:02.027Z,39.38
2023-05-14T03:27:28.459Z,39.65
2023-05-14T03:29:54.837Z,39.58
2023-05-14T03:32:21.401Z,39.55
2023-05-14T03:34:47.894Z,39.27
2023-05-14T03:37:14.388Z,39.52
2023-05-14T03:39:40.830Z,39.41
2023-05-14T03:42:07.781Z,39.22
2023-05-14T03:44:34.248Z,39.42
2023-05-14T03:47:00.708Z,39.52
2023-05-14T03:49:27.598Z,39.45
2023-05-14T03:51:55.164Z,39.20
2023-05-14T03:54:21.791Z,39.36
2023-05-14T03:56:48.362Z,39.18
2023-05-14T03:59:14.738Z,39.22
2023-05-14T04:01:41.213Z,39.25
2023-05-14T04:04:07.800Z,38.99
2023-05-14T04:06:34.759Z,39.10
2023-05-14T04:09:02.149Z,39.18
2023-05-14T04:11:28.692Z,38.87
2023-05-14T04:13:55.674Z,39.02
2023-05-14T04:16:22.451Z,38.85
2023-05-14T04:18:49.024Z,38.69
2023-05-14T04:21:15.542Z,39.05
2023-05-14T04:23:41.931Z,38.69
2023-05-14T04:26:08.470Z,39.00
2023-05-14T04:28:34.833Z,38.62
2023-05-14T04:31:01.315Z,38.69
2023-05-14T04:33:27.762Z,38.46
2023-05-14T04:35:54.339Z,38.85
2023-05-14T04:38:20.723Z,38.84
2023-05-14T04:40:47.116Z,38.65
2023-05-14T04:43:13.493Z,38.30
2023-05-14T04:45:41.087Z,38.45
2023-05-14T04:48:07.842Z,38.38
2023-05-14T04:50:35.125Z,38.26
2023-05-14T04:53:01.541Z,38.42
2023-05-14T04:55:28.252Z,38.36
2023-05-14T04:57:54.772Z,38.13
2023-05-14T05:00:22.203Z,38.09
2023-05-14T05:02:48.977Z,38.10
2023-05-14T05:05:15.554Z,37.87
2023-05-14T05:07:42.016Z,37.83
2023-05-14T05:10:08.857Z,38.04
2023-05-14T05:12:35.345Z,37.71
2023-05-14T05:15:02.032Z,37.62
2023-05-14T05:17:29.664Z,37.74
2023-05-14T05:19:56.202Z,37.58
2023-05-14T05:22:23.398Z,37.35
2023-05-14T05:24:50.215Z,37.32
2023-05-14T05:27:16.655Z,37.46
2023-05-14T05:29:44.417Z,37.52
2023-05-14T05:32:10.927Z,37.89
2023-05-14T05:34:37.537Z,37.88
2023-05-14T05:37:05.863Z,37.93
2023-05-14T05:39:34.688Z,37.89
2023-05-14T05:42:02.473Z,38.25
2023-05-14T05:44:28.984Z,38.21
2023-05-14T05:46:57.239Z,38.13
2023-05-14T05:49:24.506Z,38.25
2023-05-14T05:51:50.943Z,38.44
2023-05-14T05:54:17.551Z,38.27
2023-05-14T05:56:43.921Z,38.30
2023-05-14T05:59:11.561Z,38.17
2023-05-14T06:01:38.079Z,38.22
2023-05-14T06:04:06.209Z,38.24
2023-05-14T06:06:33.037Z,38.38
2023-05-14T06:08:59.608Z,38.38
2023-05-14T06:11:26.541Z,38.38
2023-05-14T06:13:53.471Z,38.36
2023-05-14T06:16:19.916Z,38.62
2023-05-14T06:18:46.982Z,38.83
2023-05-14T06:21:13.754Z,38.89
2023-05-14T06:23:40.485Z,38.93
2023-05-14T06:26:06.881Z,38.66
2023-05-14T06:28:33.381Z,38.41
2023-05-14T06:30:59.763Z,38.41
2023-05-14T06:33:30.703Z,38.45
2023-05-14T06:35:59.488Z,38.42
2023-05-14T06:38:25.852Z,38.62
2023-05-14T06:40:55.098Z,38.63
2023-05-14T06:43:21.861Z,38.47
2023-05-14T06:45:49.305Z,38.22
2023-05-14T06:48:18.578Z,38.33
2023-05-14T06:50:49.061Z,38.21
2023-05-14T06:53:16.355Z,37.91
2023-05-14T06:55:42.861Z,38.06
2023-05-14T06:58:09.918Z,38.20
2023-05-14T07:00:36.298Z,37.40
2023-05-14T07:03:02.882Z,37.56
2023-05-14T07:05:29.452Z,37.10
2023-05-14T07:07:55.936Z,37.38
2023-05-14T07:10:23.076Z,36.92
2023-05-14T07:12:49.839Z,37.10
2023-05-14T07:15:16.602Z,36.69
2023-05-14T07:17:43.153Z,36.69
2023-05-14T07:20:10.153Z,36.52
2023-05-14T07:22:36.660Z,36.33
2023-05-14T07:25:03.654Z,36.52
2023-05-14T07:27:30.844Z,36.03
2023-05-14T07:29:57.286Z,35.96
2023-05-14T07:32:25.695Z,35.98
2023-05-14T07:34:52.280Z,36.39
2023-05-14T07:37:18.879Z,36.28
2023-05-14T07:39:45.292Z,36.12
2023-05-14T07:42:24.650Z,36.20
2023-05-14T07:44:54.902Z,36.14
2023-05-14T07:47:21.410Z,36.15
2023-05-14T07:49:47.865Z,36.21
2023-05-14T07:52:14.639Z,36.25
2023-05-14T07:54:41.550Z,36.11
2023-05-14T07:57:08.302Z,36.30
2023-05-14T07:59:35.897Z,36.43
2023-05-14T08:02:02.937Z,36.46
2023-05-14T08:04:29.707Z,36.05
2023-05-14T08:06:58.060Z,36.21
2023-05-14T08:09:26.095Z,35.81
2023-05-14T08:11:52.611Z,35.79
2023-05-14T08:14:21.408Z,36.19
2023-05-14T08:16:50.014Z,35.91
2023-05-14T08:19:16.969Z,36.17
2023-05-14T08:21:43.458Z,36.17
2023-05-14T08:24:11.102Z,36.39
2023-05-14T08:26:39.037Z,36.28
2023-05-14T08:29:07.484Z,36.26
2023-05-14T08:31:36.230Z,36.33
2023-05-14T08:34:02.667Z,36.33
2023-05-14T08:36:29.050Z,36.39
2023-05-14T08:38:55.764Z,36.45
2023-05-14T08:41:23.352Z,36.66
2023-05-14T08:44:07.459Z,36.81
2023-05-14T08:46:35.341Z,36.96
2023-05-14T08:49:25.295Z,36.61
2023-05-14T08:51:51.880Z,36.84
2023-05-14T08:54:19.157Z,36.68
2023-05-14T08:56:46.687Z,36.92
2023-05-14T08:59:16.380Z,36.85
2023-05-14T09:01:48.224Z,36.75
2023-05-14T09:04:22.017Z,36.26
2023-05-14T09:06:53.580Z,36.58
2023-05-14T09:09:23.714Z,36.33
2023-05-14T09:11:52.265Z,36.49
2023-05-14T09:14:21.634Z,36.29
2023-05-14T09:16:50.816Z,36.03
2023-05-14T09:19:19.528Z,35.75
2023-05-14T09:21:47.896Z,35.96
2023-05-14T09:24:21.979Z,36.00
2023-05-14T09:26:56.704Z,36.13
2023-05-14T09:29:29.767Z,36.28
2023-05-14T09:31:57.997Z,36.14
2023-05-14T09:34:38.365Z,36.30
2023-05-14T09:37:10.057Z,36.66
2023-05-14T09:39:38.916Z,36.50
2023-05-14T09:42:09.021Z,36.38
2023-05-14T09:44:38.328Z,36.31
2023-05-14T09:47:05.131Z,36.00
2023-05-14T09:49:33.860Z,35.98
2023-05-14T09:52:02.523Z,36.09
2023-05-14T09:54:32.124Z,35.94
2023-05-14T09:56:58.518Z,35.66
2023-05-14T09:59:24.937Z,35.40
2023-05-14T10:01:52.421Z,35.49
2023-05-14T10:04:20.444Z,35.20
2023-05-14T10:06:51.169Z,35.55
2023-05-14T10:09:20.620Z,35.67
2023-05-14T10:11:53.258Z,35.51
2023-05-14T10:14:42.476Z,35.01
2023-05-14T10:17:18.072Z,35.59
2023-05-14T10:19:57.131Z,35.86
2023-05-14T10:22:27.241Z,35.65
2023-05-14T10:24:56.208Z,35.47
2023-05-14T10:27:23.195Z,35.82
2023-05-14T10:29:55.541Z,35.54
2023-05-14T10:32:26.517Z,35.56
2023-05-14T10:34:53.871Z,35.23
2023-05-14T10:37:25.879Z,35.49
2023-05-14T10:39:55.028Z,35.85
2023-05-14T10:42:43.330Z,36.30
2023-05-14T10:45:12.595Z,36.27
2023-05-14T10:47:42.769Z,36.35
2023-05-14T10:50:12.438Z,37.11
2023-05-14T10:52:42.986Z,38.09
2023-05-14T10:55:14.150Z,37.93
2023-05-14T10:57:45.294Z,38.20
2023-05-14T11:00:17.331Z,39.09
2023-05-14T11:02:45.165Z,39.74
2023-05-14T11:05:17.544Z,39.84
2023-05-14T11:07:48.919Z,39.80
2023-05-14T11:10:18.379Z,40.22
2023-05-14T11:12:46.991Z,40.47
2023-05-14T11:15:16.295Z,40.52
2023-05-14T11:17:45.642Z,40.22
2023-05-14T11:20:12.695Z,39.55
2023-05-14T11:22:41.688Z,39.54
2023-05-14T11:25:09.553Z,39.29
2023-05-14T11:27:44.549Z,38.87
2023-05-14T11:30:19.355Z,38.30
2023-05-14T11:32:48.850Z,38.75
2023-05-14T11:35:17.781Z,38.70
2023-05-14T11:37:55.869Z,38.69
2023-05-14T11:40:23.014Z,39.46
2023-05-14T11:42:53.649Z,40.16
2023-05-14T11:45:26.385Z,40.09
2023-05-14T11:47:55.032Z,40.52
2023-05-14T11:50:24.762Z,40.41
2023-05-14T11:52:55.959Z,40.72
2023-05-14T11:55:22.483Z,41.19
2023-05-14T11:57:49.017Z,41.42
2023-05-14T12:00:21.666Z,41.47
2023-05-14T12:02:49.666Z,41.58
2023-05-14T12:05:19.939Z,41.65
2023-05-14T12:07:48.818Z,41.39
2023-05-14T12:10:16.756Z,41.73
2023-05-14T12:12:47.431Z,41.49
2023-05-14T12:15:15.371Z,41.42
2023-05-14T12:17:42.020Z,41.41
2023-05-14T12:20:11.366Z,41.13
2023-05-14T12:22:38.490Z,41.17
2023-05-14T12:25:11.174Z,41.05
2023-05-14T12:27:38.026Z,40.90
2023-05-14T12:30:27.374Z,41.00
2023-05-14T12:32:53.684Z,40.74
2023-05-14T12:35:23.119Z,40.37
2023-05-14T12:37:50.984Z,40.29
2023-05-14T12:40:19.317Z,40.44
2023-05-14T12:42:49.214Z,40.16
2023-05-14T12:45:16.914Z,40.17
2023-05-14T12:47:43.753Z,40.16
2023-05-14T12:50:11.043Z,39.90
2023-05-14T12:52:39.907Z,39.93
2023-05-14T12:55:10.011Z,39.99
2023-05-14T12:57:38.587Z,39.72
2023-05-14T13:00:12.225Z,39.77
2023-05-14T13:02:42.852Z,39.47
2023-05-14T13:05:13.839Z,39.50
2023-05-14T13:07:41.002Z,39.24
2023-05-14T13:10:08.492Z,39.38
2023-05-14T13:12:36.410Z,39.15
2023-05-14T13:15:04.891Z,39.29
2023-05-14T13:17:31.519Z,39.13
2023-05-14T13:20:00.908Z,38.90
2023-05-14T13:22:29.572Z,38.85
2023-05-14T13:24:57.612Z,38.98
2023-05-14T13:27:24.153Z,39.13
2023-05-14T13:29:50.662Z,39.12
2023-05-14T13:32:18.399Z,38.79
2023-05-14T13:34:46.333Z,38.66
2023-05-14T13:37:14.932Z,38.75
2023-05-14T13:39:41.305Z,38.62
2023-05-14T13:42:08.688Z,38.67
2023-05-14T13:44:37.102Z,38.08
2023-05-14T13:47:05.216Z,37.90
2023-05-14T13:49:33.453Z,37.56
2023-05-14T13:51:59.860Z,37.37
2023-05-14T13:54:27.029Z,36.91
2023-05-14T13:56:55.382Z,36.99
2023-05-14T13:59:22.249Z,36.79
2023-05-14T14:01:50.001Z,36.42
2023-05-14T14:04:16.839Z,36.26
2023-05-14T14:06:43.917Z,36.17
2023-05-14T14:09:12.559Z,36.20
2023-05-14T14:11:41.893Z,36.22
2023-05-14T14:16:37.763Z,36.01
2023-05-14T14:19:05.543Z,36.03
2023-05-14T14:21:34.248Z,35.76
2023-05-14T14:24:02.120Z,35.74
2023-05-14T14:26:29.520Z,35.86
2023-05-14T14:28:56.210Z,36.04
2023-05-14T14:31:22.708Z,36.12
2023-05-14T14:33:49.490Z,36.11
2023-05-14T14:36:16.633Z,36.00
2023-05-14T14:38:45.561Z,35.92
2023-05-14T14:41:12.432Z,35.94
2023-05-14T14:43:40.765Z,35.73
2023-05-14T14:46:09.906Z,35.76
2023-05-14T14:48:41.250Z,35.65
2023-05-14T14:51:10.176Z,35.51
2023-05-14T14:53:37.420Z,35.38
2023-05-14T14:56:05.686Z,35.44
2023-05-14T14:58:32.755Z,35.79
2023-05-14T15:01:01.675Z,36.11
2023-05-14T15:03:32.619Z,36.03
2023-05-14T15:05:59.377Z,36.16
2023-05-14T15:08:27.512Z,36.14
2023-05-14T15:10:59.560Z,36.13
2023-05-14T15:15:58.710Z,36.18
2023-05-14T15:18:25.833Z,36.15
2023-05-14T15:20:52.758Z,36.15
2023-05-14T15:23:19.877Z,36.04
2023-05-14T15:25:46.332Z,36.28
2023-05-14T15:28:14.978Z,36.05
2023-05-14T15:30:44.009Z,36.12
2023-05-14T15:33:11.020Z,36.42
2023-05-14T15:38:26.613Z,36.16
2023-05-14T15:40:53.810Z,36.19
2023-05-14T15:43:20.763Z,36.34
2023-05-14T15:45:54.828Z,36.21
2023-05-14T15:48:22.318Z,36.20
2023-05-14T15:50:49.782Z,36.23
2023-05-14T15:53:17.250Z,36.19
2023-05-14T15:55:48.927Z,36.08
2023-05-14T15:58:16.880Z,36.38
2023-05-14T16:00:47.306Z,36.18
2023-05-14T16:03:14.467Z,36.15
2023-05-14T16:05:46.060Z,36.25
2023-05-14T16:08:13.726Z,35.85
2023-05-14T16:10:40.185Z,36.08
2023-05-14T16:13:08.091Z,36.07
2023-05-14T16:18:01.586Z,36.07
2023-05-14T16:20:31.710Z,36.17
2023-05-14T16:22:58.817Z,36.22
2023-05-14T16:25:26.392Z,36.25
2023-05-14T16:27:53.155Z,36.14
2023-05-14T16:30:19.634Z,36.12
2023-05-14T16:32:49.393Z,36.14
2023-05-14T16:35:17.109Z,36.44
2023-05-14T16:37:44.019Z,36.33
2023-05-14T16:40:12.179Z,36.34
2023-05-14T16:42:39.076Z,36.66
2023-05-14T16:45:08.573Z,36.83
2023-05-14T16:47:35.806Z,37.12
2023-05-14T16:50:02.521Z,37.50
2023-05-14T16:52:29.094Z,37.95
2023-05-14T16:54:55.849Z,38.02
2023-05-14T16:57:22.362Z,38.29
2023-05-14T16:59:48.864Z,38.55
2023-05-14T17:02:18.450Z,38.74
2023-05-14T17:04:45.201Z,38.75
2023-05-14T17:07:11.944Z,38.62
2023-05-14T17:09:38.621Z,38.50
2023-05-14T17:12:05.829Z,38.86
2023-05-14T17:14:32.324Z,38.66
2023-05-14T17:16:59.030Z,39.25
2023-05-14T17:19:25.866Z,40.80
2023-05-14T17:21:52.505Z,41.89
2023-05-14T17:24:19.449Z,42.42
2023-05-14T17:26:46.337Z,42.85
2023-05-14T17:29:12.800Z,43.44
2023-05-14T17:31:39.490Z,43.22
2023-05-14T17:34:06.227Z,42.95
2023-05-14T17:36:32.805Z,42.81
2023-05-14T17:38:59.303Z,42.66
2023-05-14T17:41:26.584Z,42.29
2023-05-14T17:43:53.448Z,42.60
2023-05-14T17:46:20.159Z,42.80
2023-05-14T17:48:46.740Z,42.62
2023-05-14T17:51:16.012Z,42.60
2023-05-14T17:53:42.574Z,42.42
2023-05-14T17:56:09.204Z,42.05
2023-05-14T17:58:36.113Z,42.19
2023-05-14T18:01:03.411Z,42.04
2023-05-14T18:03:30.317Z,41.78
2023-05-14T18:05:58.366Z,41.73
2023-05-14T18:08:24.963Z,41.61
2023-05-14T18:10:51.584Z,41.44
2023-05-14T18:13:18.307Z,41.41
2023-05-14T18:15:45.311Z,41.27
2023-05-14T18:18:12.286Z,41.11
2023-05-14T18:20:38.938Z,41.04
2023-05-14T18:23:05.634Z,41.25
2023-05-14T18:25:32.411Z,40.81
2023-05-14T18:27:59.178Z,41.05
2023-05-14T18:30:26.141Z,41.09
2023-05-14T18:32:52.772Z,41.06
2023-05-14T18:35:19.546Z,41.03
2023-05-14T18:40:15.595Z,40.80
2023-05-14T18:42:43.501Z,40.56
2023-05-14T18:45:10.615Z,40.45
2023-05-14T18:47:39.579Z,40.58
2023-05-14T18:50:09.207Z,40.57
2023-05-14T18:52:35.841Z,40.27
2023-05-14T18:55:02.394Z,40.52
2023-05-14T18:57:37.952Z,40.37
2023-05-14T19:00:05.119Z,40.35
2023-05-14T19:02:31.752Z,40.32
2023-05-14T19:04:58.527Z,40.32
2023-05-14T19:07:25.812Z,40.35
2023-05-14T19:09:52.959Z,40.18
2023-05-14T19:12:19.470Z,40.08
2023-05-14T19:14:46.034Z,39.95
2023-05-14T19:17:12.779Z,39.99
2023-05-14T19:19:39.717Z,40.17
2023-05-14T19:22:06.796Z,40.01
2023-05-14T19:24:33.919Z,40.20
2023-05-14T19:27:00.693Z,39.60
2023-05-14T19:29:27.283Z,40.12
2023-05-14T19:31:54.007Z,40.44
2023-05-14T19:34:20.686Z,40.92
2023-05-14T19:36:49.969Z,41.23
2023-05-14T19:39:16.668Z,41.36
2023-05-14T19:41:43.396Z,41.23
2023-05-14T19:44:09.974Z,41.41
2023-05-14T19:46:36.529Z,41.31
2023-05-14T19:49:03.404Z,41.47
2023-05-14T19:51:30.483Z,41.58
2023-05-14T19:54:00.075Z,41.52
2023-05-14T19:56:27.795Z,41.72
2023-05-14T19:58:54.661Z,41.66
2023-05-14T20:01:21.281Z,41.56
2023-05-14T20:03:48.170Z,41.80
2023-05-14T20:06:14.833Z,41.72
2023-05-14T20:08:47.571Z,41.52
2023-05-14T20:11:15.610Z,41.59
2023-05-14T20:13:42.196Z,41.25
2023-05-14T20:16:08.944Z,41.25
2023-05-14T20:18:35.688Z,41.20
2023-05-14T20:21:02.454Z,40.98
2023-05-14T20:23:29.312Z,41.13
2023-05-14T20:25:56.184Z,41.03
2023-05-14T20:28:22.761Z,41.14
2023-05-14T20:30:49.366Z,40.94
2023-05-14T20:33:16.030Z,40.96
2023-05-14T20:35:43.912Z,41.18
2023-05-14T20:38:12.522Z,41.12
2023-05-14T20:40:39.455Z,41.16
2023-05-14T20:43:10.303Z,41.31
2023-05-14T20:45:36.872Z,41.11
2023-05-14T20:48:08.094Z,40.93
2023-05-14T20:50:34.702Z,41.13
2023-05-14T20:53:01.456Z,40.96
2023-05-14T20:55:28.446Z,41.01
2023-05-14T20:57:54.916Z,41.07
2023-05-14T21:00:22.002Z,40.83
2023-05-14T21:02:49.194Z,40.79
2023-05-14T21:05:17.193Z,40.85
2023-05-14T21:07:43.677Z,40.79
2023-05-14T21:10:10.733Z,40.87
2023-05-14T21:12:37.437Z,40.92
2023-05-14T21:15:04.398Z,40.69
2023-05-14T21:17:31.306Z,40.60
2023-05-14T21:19:57.872Z,40.76
2023-05-14T21:22:24.704Z,40.68
2023-05-14T21:24:51.426Z,40.66
2023-05-14T21:27:18.198Z,40.80
2023-05-14T21:29:47.602Z,40.66
2023-05-14T21:32:14.281Z,40.52
2023-05-14T21:34:40.898Z,40.68
2023-05-14T21:37:07.435Z,40.92
2023-05-14T21:39:36.061Z,40.44
2023-05-14T21:42:02.561Z,40.62
2023-05-14T21:44:29.173Z,40.42
2023-05-14T21:46:56.020Z,40.36
2023-05-14T21:49:22.526Z,40.26
2023-05-14T21:51:53.014Z,40.44
2023-05-14T21:54:20.912Z,40.45
2023-05-14T21:56:48.004Z,40.40
2023-05-14T21:59:14.532Z,40.25
2023-05-14T22:01:56.159Z,40.21
2023-05-14T22:04:27.645Z,40.25
2023-05-14T22:06:54.263Z,40.47
2023-05-14T22:09:22.219Z,40.26
2023-05-14T22:11:48.737Z,40.23
2023-05-14T22:14:18.586Z,40.23
2023-05-14T22:16:45.203Z,40.37
2023-05-14T22:19:11.898Z,40.16
2023-05-14T22:21:38.592Z,40.30
2023-05-14T22:24:05.608Z,39.97
2023-05-14T22:26:32.128Z,39.86
2023-05-14T22:28:58.949Z,40.04
2023-05-14T22:31:25.592Z,39.87
2023-05-14T22:33:54.956Z,40.15
2023-05-14T22:36:21.481Z,40.08
2023-05-14T22:38:48.022Z,40.12
2023-05-14T22:41:17.297Z,40.21
2023-05-14T22:46:04.887Z,40.01
2023-05-14T22:48:31.470Z,40.16
2023-05-14T22:50:58.001Z,40.10
2023-05-14T22:53:25.369Z,39.89
2023-05-14T22:55:52.096Z,39.99
2023-05-14T22:58:18.648Z,40.12
2023-05-14T23:00:45.332Z,39.88
2023-05-14T23:03:14.654Z,39.88
2023-05-14T23:05:41.213Z,39.88
2023-05-14T23:08:07.952Z,39.86
2023-05-14T23:10:35.546Z,39.71
2023-05-14T23:13:02.250Z,39.68
2023-05-14T23:15:29.052Z,39.86
2023-05-14T23:17:55.989Z,39.72
2023-05-14T23:20:22.663Z,39.74
2023-05-14T23:22:49.368Z,40.10
2023-05-14T23:25:15.958Z,39.96
2023-05-14T23:27:42.540Z,39.86
2023-05-14T23:30:09.745Z,39.79
2023-05-14T23:32:38.910Z,39.87
2023-05-14T23:35:05.648Z,39.93
2023-05-14T23:37:33.569Z,39.92
2023-05-14T23:40:00.198Z,39.85
2023-05-14T23:42:29.879Z,40.00
2023-05-14T23:44:56.381Z,39.92
2023-05-14T23:47:22.988Z,39.96
2023-05-14T23:49:49.850Z,39.76
2023-05-14T23:52:16.480Z,39.54
2023-05-14T23:54:42.939Z,39.88
2023-05-14T23:57:12.990Z,39.78
2023-05-14T23:59:40.973Z,39.79
